• Join FlightAware (Why Join?)
  • Login
  • US Flag 
11:16PM EDT


 

Airport Tracker/Info


-or-


 

Live Flight TrackerFlight Track Log ✈ TYR843 ✈ 02-Feb-2014 ✈ LOWW / VIE - LATI / TIA

Flight Track Log - Related Links

Times and Time Zones

All times are in EST time to prevent confusion due to time zone crossing. See the TYR843 flight status page for this flight to view local times or setup timezone preferences in your user account.

Time Position Orientation Groundspeed Altitude Reporting Facility
EST Latitude Longitude Course Direction KTS MPH feet Rate Location/Type
06:19PM 46.2491 17.5259 160° South  Level Estimated
06:20PM 46.1509 17.5744 161° South  Level Estimated
06:21PM 46.0527 17.6228 161° South  Level Estimated
06:22PM 45.9545 17.6710 161° South  Level Estimated
06:23PM 45.8563 17.7190 161° South  Level Estimated
06:24PM 45.7581 17.7668 161° South  Level Estimated
06:25PM 45.6598 17.8144 161° South  Level Estimated
06:26PM 45.5615 17.8619 161° South  Level Estimated
06:27PM 45.4632 17.9093 161° South  Level Estimated
06:28PM 45.3649 17.9564 161° South  Level Estimated
06:29PM 45.2665 18.0034 161° South  Level Estimated
06:30PM 45.1681 18.0503 161° South  Level Estimated
06:31PM 45.0698 18.0970 161° South  Level Estimated
06:32PM 44.9713 18.1435 162° South  Level Estimated
06:33PM 44.8729 18.1898 162° South  Level Estimated
06:34PM 44.7745 18.2360 162° South  Level Estimated
06:35PM 44.6760 18.2821 162° South  Level Estimated
06:36PM 44.5775 18.3279 162° South  Level Estimated
06:37PM 44.4790 18.3737 162° South  Level Estimated
06:38PM 44.3805 18.4193 162° South  Level Estimated
06:39PM 44.2820 18.4647 162° South  Level Estimated
06:40PM 44.1834 18.5099 162° South  Level Estimated
06:41PM 44.0848 18.5551 162° South  Level Estimated
06:42PM 43.9863 18.6000 162° South  Level Estimated
06:43PM 43.8876 18.6448 162° South  Level Estimated
06:44PM 43.7890 18.6895 162° South  Level Estimated
06:45PM 43.6904 18.7340 162° South  Level Estimated
06:46PM 43.5917 18.7784 162° South  Level Estimated
06:47PM 43.4930 18.8227 162° South  Level Estimated
06:48PM 43.3943 18.8667 162° South  Level Estimated
06:49PM 43.2956 18.9107 162° South  Level Estimated
06:50PM 43.1969 18.9545 162° South  Level Estimated
06:51PM 43.0982 18.9981 162° South  Level Estimated
06:52PM 42.9994 19.0417 162° South  Level Estimated
06:53PM 42.9006 19.0850 162° South  Level Estimated
06:54PM 42.8018 19.1283 162° South  Level Estimated
06:55PM 42.7030 19.1714 162° South  Level Estimated
06:56PM 42.6042 19.2143 162° South  Level Estimated
06:57PM 42.5053 19.2572 162° South  Level Estimated
06:58PM 42.4065 19.2999 162° South  Level Estimated
06:59PM 42.3076 19.3424 162° South  Level Estimated
07:00PM 42.2087 19.3849 162° South  Level Estimated
07:01PM 42.1098 19.4272 162° South  Level Estimated
07:02PM 42.0109 19.4693 162° South  Level Estimated
07:03PM 41.9120 19.5114 162° South  Level Estimated
07:04PM 41.8130 19.5533 162° South  Level Estimated
07:05PM 41.7141 19.5950 163° South  Level Estimated
07:06PM 41.6151 19.6367 163° South  Level Estimated
07:07PM 41.5161 19.6782 163° South  Level Estimated
07:08PM 41.4171 19.7196 163° South  Level Estimated
07:09PM 41.4147 19.7206 163° South  Level Estimated
07:10PM 41.4147 19.7206 21° North  Level Estimated
07:11PM 41.4147 19.7206 21° North  Level Estimated
07:12PM 41.4147 19.7206 21° North  Level Estimated
07:13PM 41.4147 19.7206 21° North  Level Estimated
07:14PM 41.4147 19.7206 21° North  Level Estimated
07:15PM 41.4147 19.7206 21° North  Level Estimated
07:16PM 41.4147 19.7206 21° North  Level Estimated
07:17PM 41.4147 19.7206 21° North  Level Estimated
07:18PM 41.4147 19.7206 21° North  Level Estimated
07:19PM 41.4147 19.7206 21° North  Level Estimated